« Back
NWS Peachtree City, Ga » Text Product » AHN Terminal Aerodrome Forecast


Printer-friendly Version
Current Version              Previous Versions:   1  2  3  4  5  6  7  8  9  

Terminal Aerodrome Forecast

419
FTAK31 PAJN 270200 AAB
TAFAHN
TAF AMD
PAHN 270200Z 2702/2724 12008KT P6SM VCTS FEW040 BKN100CB
      TEMPO 2702/2704 32010KT
     FM270400 VRB04KT P6SM VCSH BKN040 BKN060
     FM270700 30006KT P6SM BKN040
     FM271200 31012KT P6SM SCT040
      AMD LTD TO CLD VIS AND WIND=

USA.gov is the U.S. government's official web portal to all federal, state and local government web resources and services.